sensor_id;sensor_type;location;lat;lon;timestamp;temperature;humidity
4052;DHT22;2040;50.924;11.604;2022-11-20T00:01:49;-5.30;99.90
4052;DHT22;2040;50.924;11.604;2022-11-20T00:04:15;-5.30;99.90
4052;DHT22;2040;50.924;11.604;2022-11-20T00:06:40;-5.50;99.90
4052;DHT22;2040;50.924;11.604;2022-11-20T00:09:06;-5.60;99.90
4052;DHT22;2040;50.924;11.604;2022-11-20T00:11:32;-5.60;99.90
4052;DHT22;2040;50.924;11.604;2022-11-20T00:13:59;-5.60;99.90
4052;DHT22;2040;50.924;11.604;2022-11-20T00:16:27;-5.50;99.90
4052;DHT22;2040;50.924;11.604;2022-11-20T00:18:54;-5.50;99.90
4052;DHT22;2040;50.924;11.604;2022-11-20T00:21:27;-5.60;99.90
4052;DHT22;2040;50.924;11.604;2022-11-20T00:23:55;-5.50;99.90
4052;DHT22;2040;50.924;11.604;2022-11-20T00:26:22;-5.70;99.90
4052;DHT22;2040;50.924;11.604;2022-11-20T00:28:54;-5.60;99.90
4052;DHT22;2040;50.924;11.604;2022-11-20T00:31:19;-5.50;99.90
4052;DHT22;2040;50.924;11.604;2022-11-20T00:33:45;-5.60;99.90
4052;DHT22;2040;50.924;11.604;2022-11-20T00:36:20;-5.60;99.90
4052;DHT22;2040;50.924;11.604;2022-11-20T00:38:46;-5.70;99.90
4052;DHT22;2040;50.924;11.604;2022-11-20T00:41:14;-5.60;99.90
4052;DHT22;2040;50.924;11.604;2022-11-20T00:43:40;-5.70;99.90
4052;DHT22;2040;50.924;11.604;2022-11-20T00:46:14;-5.70;99.90
4052;DHT22;2040;50.924;11.604;2022-11-20T00:48:40;-5.60;99.90
4052;DHT22;2040;50.924;11.604;2022-11-20T00:51:06;-5.60;99.90
4052;DHT22;2040;50.924;11.604;2022-11-20T00:53:32;-5.50;99.90
4052;DHT22;2040;50.924;11.604;2022-11-20T00:56:10;-5.60;99.90
4052;DHT22;2040;50.924;11.604;2022-11-20T00:58:37;-5.50;99.90
4052;DHT22;2040;50.924;11.604;2022-11-20T01:01:15;-5.50;99.90
4052;DHT22;2040;50.924;11.604;2022-11-20T01:03:44;-5.50;99.90
4052;DHT22;2040;50.924;11.604;2022-11-20T01:06:12;-5.50;99.90
4052;DHT22;2040;50.924;11.604;2022-11-20T01:08:38;-5.50;99.90
4052;DHT22;2040;50.924;11.604;2022-11-20T01:11:13;-5.50;99.90
4052;DHT22;2040;50.924;11.604;2022-11-20T01:13:39;-5.50;99.90
4052;DHT22;2040;50.924;11.604;2022-11-20T01:16:10;-5.40;99.90
4052;DHT22;2040;50.924;11.604;2022-11-20T01:18:37;-5.10;99.90
4052;DHT22;2040;50.924;11.604;2022-11-20T01:21:05;-5.30;99.90
4052;DHT22;2040;50.924;11.604;2022-11-20T01:23:35;-5.50;99.90
4052;DHT22;2040;50.924;11.604;2022-11-20T01:26:06;-5.50;99.90
4052;DHT22;2040;50.924;11.604;2022-11-20T01:28:33;-5.60;99.90
4052;DHT22;2040;50.924;11.604;2022-11-20T01:30:59;-5.60;99.90
4052;DHT22;2040;50.924;11.604;2022-11-20T01:33:24;-5.50;99.90
4052;DHT22;2040;50.924;11.604;2022-11-20T01:35:51;-5.50;99.90
4052;DHT22;2040;50.924;11.604;2022-11-20T01:38:17;-5.50;99.90
4052;DHT22;2040;50.924;11.604;2022-11-20T01:40:42;-5.50;99.90
4052;DHT22;2040;50.924;11.604;2022-11-20T01:43:18;-5.60;99.90
4052;DHT22;2040;50.924;11.604;2022-11-20T01:45:58;-5.90;99.90
4052;DHT22;2040;50.924;11.604;2022-11-20T01:48:28;-5.80;99.90
4052;DHT22;2040;50.924;11.604;2022-11-20T01:50:55;-6.10;99.90
4052;DHT22;2040;50.924;11.604;2022-11-20T01:53:26;-6.10;99.90
4052;DHT22;2040;50.924;11.604;2022-11-20T01:55:55;-6.30;99.90
4052;DHT22;2040;50.924;11.604;2022-11-20T01:58:30;-6.30;99.90
4052;DHT22;2040;50.924;11.604;2022-11-20T02:00:57;-6.30;99.90
4052;DHT22;2040;50.924;11.604;2022-11-20T02:03:23;-6.50;99.90
4052;DHT22;2040;50.924;11.604;2022-11-20T02:05:55;-6.60;99.90
4052;DHT22;2040;50.924;11.604;2022-11-20T02:08:23;-6.70;99.90
4052;DHT22;2040;50.924;11.604;2022-11-20T02:10:49;-6.60;99.90
4052;DHT22;2040;50.924;11.604;2022-11-20T02:13:15;-6.70;99.90
4052;DHT22;2040;50.924;11.604;2022-11-20T02:16:00;-6.60;99.90
4052;DHT22;2040;50.924;11.604;2022-11-20T02:18:26;-6.60;99.90
4052;DHT22;2040;50.924;11.604;2022-11-20T02:21:01;-6.60;99.90
4052;DHT22;2040;50.924;11.604;2022-11-20T02:23:41;-6.50;99.90
4052;DHT22;2040;50.924;11.604;2022-11-20T02:26:11;-6.00;99.90
4052;DHT22;2040;50.924;11.604;2022-11-20T02:28:37;-6.20;99.90
4052;DHT22;2040;50.924;11.604;2022-11-20T02:31:03;-6.30;99.90
4052;DHT22;2040;50.924;11.604;2022-11-20T02:33:28;-6.30;99.90
4052;DHT22;2040;50.924;11.604;2022-11-20T02:35:54;-6.60;99.90
4052;DHT22;2040;50.924;11.604;2022-11-20T02:38:20;-6.50;99.90
4052;DHT22;2040;50.924;11.604;2022-11-20T02:40:45;-6.60;99.90
4052;DHT22;2040;50.924;11.604;2022-11-20T02:43:11;-6.60;99.90
4052;DHT22;2040;50.924;11.604;2022-11-20T02:45:37;-6.60;99.90
4052;DHT22;2040;50.924;11.604;2022-11-20T02:48:03;-6.50;99.90
4052;DHT22;2040;50.924;11.604;2022-11-20T02:50:30;-6.60;99.90
4052;DHT22;2040;50.924;11.604;2022-11-20T02:52:56;-6.70;99.90
4052;DHT22;2040;50.924;11.604;2022-11-20T02:55:21;-6.90;99.90
4052;DHT22;2040;50.924;11.604;2022-11-20T02:57:47;-6.90;99.90
4052;DHT22;2040;50.924;11.604;2022-11-20T03:00:13;-6.60;99.90
4052;DHT22;2040;50.924;11.604;2022-11-20T03:02:39;-6.70;99.90
4052;DHT22;2040;50.924;11.604;2022-11-20T03:05:05;-6.60;99.90
4052;DHT22;2040;50.924;11.604;2022-11-20T03:07:30;-6.50;99.90
4052;DHT22;2040;50.924;11.604;2022-11-20T03:09:56;-6.60;99.90
4052;DHT22;2040;50.924;11.604;2022-11-20T03:12:22;-6.40;99.90
4052;DHT22;2040;50.924;11.604;2022-11-20T03:14:47;-6.30;99.90
4052;DHT22;2040;50.924;11.604;2022-11-20T03:17:13;-6.50;99.90
4052;DHT22;2040;50.924;11.604;2022-11-20T03:19:38;-6.30;99.90
4052;DHT22;2040;50.924;11.604;2022-11-20T03:22:04;-6.30;99.90
4052;DHT22;2040;50.924;11.604;2022-11-20T03:24:29;-6.30;99.90
4052;DHT22;2040;50.924;11.604;2022-11-20T03:26:55;-6.50;99.90
4052;DHT22;2040;50.924;11.604;2022-11-20T03:29:21;-6.60;99.90
4052;DHT22;2040;50.924;11.604;2022-11-20T03:31:46;-6.40;99.90
4052;DHT22;2040;50.924;11.604;2022-11-20T03:34:12;-6.50;99.90
4052;DHT22;2040;50.924;11.604;2022-11-20T03:36:39;-6.70;99.90
4052;DHT22;2040;50.924;11.604;2022-11-20T03:39:05;-6.70;99.90
4052;DHT22;2040;50.924;11.604;2022-11-20T03:41:34;-6.70;99.90
4052;DHT22;2040;50.924;11.604;2022-11-20T03:44:03;-6.80;99.90
4052;DHT22;2040;50.924;11.604;2022-11-20T03:46:29;-6.90;99.90
4052;DHT22;2040;50.924;11.604;2022-11-20T03:48:55;-7.00;99.90
4052;DHT22;2040;50.924;11.604;2022-11-20T03:53:50;-7.20;99.90
4052;DHT22;2040;50.924;11.604;2022-11-20T03:56:18;-7.30;99.90
4052;DHT22;2040;50.924;11.604;2022-11-20T03:58:44;-7.40;99.90
4052;DHT22;2040;50.924;11.604;2022-11-20T04:01:12;-7.40;99.90
4052;DHT22;2040;50.924;11.604;2022-11-20T04:03:39;-7.50;99.90
4052;DHT22;2040;50.924;11.604;2022-11-20T04:06:07;-7.40;99.90
4052;DHT22;2040;50.924;11.604;2022-11-20T04:08:34;-7.50;99.90
4052;DHT22;2040;50.924;11.604;2022-11-20T04:13:34;-7.20;99.90
4052;DHT22;2040;50.924;11.604;2022-11-20T04:15:59;-7.10;99.90
4052;DHT22;2040;50.924;11.604;2022-11-20T04:18:25;-7.20;99.90
4052;DHT22;2040;50.924;11.604;2022-11-20T04:20:50;-7.30;99.90
4052;DHT22;2040;50.924;11.604;2022-11-20T04:23:16;-6.90;99.90
4052;DHT22;2040;50.924;11.604;2022-11-20T04:25:42;-6.90;99.90
4052;DHT22;2040;50.924;11.604;2022-11-20T04:28:07;-7.20;99.90
4052;DHT22;2040;50.924;11.604;2022-11-20T04:30:33;-7.30;99.90
4052;DHT22;2040;50.924;11.604;2022-11-20T04:32:58;-7.30;99.90
4052;DHT22;2040;50.924;11.604;2022-11-20T04:35:24;-7.30;99.90
4052;DHT22;2040;50.924;11.604;2022-11-20T04:37:51;-7.30;99.90
4052;DHT22;2040;50.924;11.604;2022-11-20T04:40:17;-7.30;99.90
4052;DHT22;2040;50.924;11.604;2022-11-20T04:42:42;-7.40;99.90
4052;DHT22;2040;50.924;11.604;2022-11-20T04:45:08;-7.70;99.90
4052;DHT22;2040;50.924;11.604;2022-11-20T04:47:34;-7.70;99.90
4052;DHT22;2040;50.924;11.604;2022-11-20T04:49:59;-7.70;99.90
4052;DHT22;2040;50.924;11.604;2022-11-20T04:52:25;-7.80;99.90
4052;DHT22;2040;50.924;11.604;2022-11-20T04:54:51;-7.90;99.90
4052;DHT22;2040;50.924;11.604;2022-11-20T04:57:18;-8.00;99.90
4052;DHT22;2040;50.924;11.604;2022-11-20T04:59:44;-8.10;99.90
4052;DHT22;2040;50.924;11.604;2022-11-20T05:02:10;-8.20;99.90
4052;DHT22;2040;50.924;11.604;2022-11-20T05:04:36;-8.20;99.90
4052;DHT22;2040;50.924;11.604;2022-11-20T05:07:02;-8.20;99.90
4052;DHT22;2040;50.924;11.604;2022-11-20T05:09:27;-8.20;99.90
4052;DHT22;2040;50.924;11.604;2022-11-20T05:11:53;-8.10;99.90
4052;DHT22;2040;50.924;11.604;2022-11-20T05:14:19;-8.10;99.90
4052;DHT22;2040;50.924;11.604;2022-11-20T05:16:44;-8.10;99.90
4052;DHT22;2040;50.924;11.604;2022-11-20T05:19:10;-7.80;99.90
4052;DHT22;2040;50.924;11.604;2022-11-20T05:21:35;-7.70;99.90
4052;DHT22;2040;50.924;11.604;2022-11-20T05:24:01;-7.80;99.90
4052;DHT22;2040;50.924;11.604;2022-11-20T05:26:27;-7.90;99.90
4052;DHT22;2040;50.924;11.604;2022-11-20T05:28:52;-7.90;99.90
4052;DHT22;2040;50.924;11.604;2022-11-20T05:31:20;-7.80;99.90
4052;DHT22;2040;50.924;11.604;2022-11-20T05:33:46;-7.80;99.90
4052;DHT22;2040;50.924;11.604;2022-11-20T05:36:13;-7.90;99.90
4052;DHT22;2040;50.924;11.604;2022-11-20T05:38:39;-8.20;99.90
4052;DHT22;2040;50.924;11.604;2022-11-20T05:41:09;-8.30;99.90
4052;DHT22;2040;50.924;11.604;2022-11-20T05:43:36;-8.20;99.90
4052;DHT22;2040;50.924;11.604;2022-11-20T05:46:03;-8.20;99.90
4052;DHT22;2040;50.924;11.604;2022-11-20T05:48:29;-8.30;99.90
4052;DHT22;2040;50.924;11.604;2022-11-20T05:50:56;-8.20;99.90
4052;DHT22;2040;50.924;11.604;2022-11-20T05:53:22;-8.10;99.90
4052;DHT22;2040;50.924;11.604;2022-11-20T05:56:05;-8.00;99.90
4052;DHT22;2040;50.924;11.604;2022-11-20T05:58:32;-8.00;99.90
4052;DHT22;2040;50.924;11.604;2022-11-20T06:03:32;-7.90;99.90
4052;DHT22;2040;50.924;11.604;2022-11-20T06:06:02;-8.10;99.90
4052;DHT22;2040;50.924;11.604;2022-11-20T06:08:28;-7.80;99.90
4052;DHT22;2040;50.924;11.604;2022-11-20T06:10:54;-7.60;99.90
4052;DHT22;2040;50.924;11.604;2022-11-20T06:13:20;-7.80;99.90
4052;DHT22;2040;50.924;11.604;2022-11-20T06:15:52;-7.90;99.90
4052;DHT22;2040;50.924;11.604;2022-11-20T06:18:18;-8.00;99.90
4052;DHT22;2040;50.924;11.604;2022-11-20T06:20:44;-8.10;99.90
4052;DHT22;2040;50.924;11.604;2022-11-20T06:23:10;-8.00;99.90
4052;DHT22;2040;50.924;11.604;2022-11-20T06:25:40;-8.00;99.90
4052;DHT22;2040;50.924;11.604;2022-11-20T06:28:06;-8.00;99.90
4052;DHT22;2040;50.924;11.604;2022-11-20T06:30:32;-8.00;99.90
4052;DHT22;2040;50.924;11.604;2022-11-20T06:32:58;-8.00;99.90
4052;DHT22;2040;50.924;11.604;2022-11-20T06:35:23;-8.20;99.90
4052;DHT22;2040;50.924;11.604;2022-11-20T06:37:49;-8.20;99.90
4052;DHT22;2040;50.924;11.604;2022-11-20T06:40:15;-8.20;99.90
4052;DHT22;2040;50.924;11.604;2022-11-20T06:42:40;-8.30;99.90
4052;DHT22;2040;50.924;11.604;2022-11-20T06:45:06;-8.30;99.90
4052;DHT22;2040;50.924;11.604;2022-11-20T06:47:32;-8.30;99.90
4052;DHT22;2040;50.924;11.604;2022-11-20T06:49:58;-8.40;99.90
4052;DHT22;2040;50.924;11.604;2022-11-20T06:52:24;-8.30;99.90
4052;DHT22;2040;50.924;11.604;2022-11-20T06:54:49;-8.30;99.90
4052;DHT22;2040;50.924;11.604;2022-11-20T06:57:15;-8.20;99.90
4052;DHT22;2040;50.924;11.604;2022-11-20T06:59:41;-8.30;99.90
4052;DHT22;2040;50.924;11.604;2022-11-20T07:02:10;-8.10;99.90
4052;DHT22;2040;50.924;11.604;2022-11-20T07:04:37;-8.00;99.90
4052;DHT22;2040;50.924;11.604;2022-11-20T07:07:02;-8.10;99.90
4052;DHT22;2040;50.924;11.604;2022-11-20T07:09:28;-8.00;99.90
4052;DHT22;2040;50.924;11.604;2022-11-20T07:11:54;-7.80;99.90
4052;DHT22;2040;50.924;11.604;2022-11-20T07:14:19;-7.80;99.90
4052;DHT22;2040;50.924;11.604;2022-11-20T07:16:45;-7.90;99.90
4052;DHT22;2040;50.924;11.604;2022-11-20T07:19:10;-8.00;99.90
4052;DHT22;2040;50.924;11.604;2022-11-20T07:21:36;-8.00;99.90
4052;DHT22;2040;50.924;11.604;2022-11-20T07:24:02;-7.90;99.90
4052;DHT22;2040;50.924;11.604;2022-11-20T07:26:27;-7.80;99.90
4052;DHT22;2040;50.924;11.604;2022-11-20T07:28:53;-7.70;99.90
4052;DHT22;2040;50.924;11.604;2022-11-20T07:31:19;-7.60;99.90
4052;DHT22;2040;50.924;11.604;2022-11-20T07:33:44;-7.70;99.90
4052;DHT22;2040;50.924;11.604;2022-11-20T07:36:10;-7.50;99.90
4052;DHT22;2040;50.924;11.604;2022-11-20T07:38:37;-7.40;99.90
4052;DHT22;2040;50.924;11.604;2022-11-20T07:41:03;-7.30;99.90
4052;DHT22;2040;50.924;11.604;2022-11-20T07:43:28;-7.10;99.90
4052;DHT22;2040;50.924;11.604;2022-11-20T07:45:58;-7.10;99.90
4052;DHT22;2040;50.924;11.604;2022-11-20T07:48:24;-7.10;99.90
4052;DHT22;2040;50.924;11.604;2022-11-20T07:50:54;-7.30;99.90
4052;DHT22;2040;50.924;11.604;2022-11-20T07:53:20;-7.10;99.90
4052;DHT22;2040;50.924;11.604;2022-11-20T07:55:47;-6.90;99.90
4052;DHT22;2040;50.924;11.604;2022-11-20T07:58:13;-6.80;99.90
4052;DHT22;2040;50.924;11.604;2022-11-20T08:00:40;-6.70;99.90
4052;DHT22;2040;50.924;11.604;2022-11-20T08:03:06;-6.60;99.90
4052;DHT22;2040;50.924;11.604;2022-11-20T08:05:32;-6.40;99.90
4052;DHT22;2040;50.924;11.604;2022-11-20T08:07:58;-6.30;99.90
4052;DHT22;2040;50.924;11.604;2022-11-20T08:10:24;-6.20;99.90
4052;DHT22;2040;50.924;11.604;2022-11-20T08:12:51;-6.10;99.90
4052;DHT22;2040;50.924;11.604;2022-11-20T08:15:37;-6.00;99.90
4052;DHT22;2040;50.924;11.604;2022-11-20T08:18:05;-5.90;99.90
4052;DHT22;2040;50.924;11.604;2022-11-20T08:20:31;-5.70;99.90
4052;DHT22;2040;50.924;11.604;2022-11-20T08:22:59;-5.60;99.90
4052;DHT22;2040;50.924;11.604;2022-11-20T08:25:25;-5.60;99.90
4052;DHT22;2040;50.924;11.604;2022-11-20T08:27:51;-5.40;99.90
4052;DHT22;2040;50.924;11.604;2022-11-20T08:30:17;-5.40;99.90
4052;DHT22;2040;50.924;11.604;2022-11-20T08:32:42;-5.20;99.90
4052;DHT22;2040;50.924;11.604;2022-11-20T08:35:08;-5.20;99.90
4052;DHT22;2040;50.924;11.604;2022-11-20T08:37:34;-5.40;99.90
4052;DHT22;2040;50.924;11.604;2022-11-20T08:39:59;-5.20;99.90
4052;DHT22;2040;50.924;11.604;2022-11-20T08:42:25;-5.10;99.90
4052;DHT22;2040;50.924;11.604;2022-11-20T08:44:50;-5.00;99.90
4052;DHT22;2040;50.924;11.604;2022-11-20T08:47:16;-4.90;99.90
4052;DHT22;2040;50.924;11.604;2022-11-20T08:49:41;-4.80;99.90
4052;DHT22;2040;50.924;11.604;2022-11-20T08:52:07;-4.70;99.90
4052;DHT22;2040;50.924;11.604;2022-11-20T08:54:33;-4.60;99.90
4052;DHT22;2040;50.924;11.604;2022-11-20T08:56:58;-4.50;99.90
4052;DHT22;2040;50.924;11.604;2022-11-20T08:59:24;-4.30;99.90
4052;DHT22;2040;50.924;11.604;2022-11-20T09:01:49;-4.20;99.90
4052;DHT22;2040;50.924;11.604;2022-11-20T09:04:15;-4.30;99.90
4052;DHT22;2040;50.924;11.604;2022-11-20T09:06:41;-4.40;99.90
4052;DHT22;2040;50.924;11.604;2022-11-20T09:09:06;-4.20;99.90
4052;DHT22;2040;50.924;11.604;2022-11-20T09:11:32;-4.10;99.90
4052;DHT22;2040;50.924;11.604;2022-11-20T09:13:58;-4.00;99.90
4052;DHT22;2040;50.924;11.604;2022-11-20T09:16:23;-4.00;99.90
4052;DHT22;2040;50.924;11.604;2022-11-20T09:18:50;-4.00;99.90
4052;DHT22;2040;50.924;11.604;2022-11-20T09:21:16;-4.00;99.90
4052;DHT22;2040;50.924;11.604;2022-11-20T09:23:42;-3.90;99.90
4052;DHT22;2040;50.924;11.604;2022-11-20T09:26:12;-3.90;99.90
4052;DHT22;2040;50.924;11.604;2022-11-20T09:28:39;-3.90;99.90
4052;DHT22;2040;50.924;11.604;2022-11-20T09:31:06;-3.80;99.90
4052;DHT22;2040;50.924;11.604;2022-11-20T09:33:32;-3.80;99.90
4052;DHT22;2040;50.924;11.604;2022-11-20T09:35:58;-3.90;99.90
4052;DHT22;2040;50.924;11.604;2022-11-20T09:38:23;-3.70;99.90
4052;DHT22;2040;50.924;11.604;2022-11-20T09:41:02;-3.70;99.90
4052;DHT22;2040;50.924;11.604;2022-11-20T09:44:02;-3.60;99.90
4052;DHT22;2040;50.924;11.604;2022-11-20T09:46:48;-3.70;99.90
4052;DHT22;2040;50.924;11.604;2022-11-20T09:49:40;-3.60;99.90
4052;DHT22;2040;50.924;11.604;2022-11-20T09:52:18;-3.50;99.90
4052;DHT22;2040;50.924;11.604;2022-11-20T09:54:48;-3.40;99.90
4052;DHT22;2040;50.924;11.604;2022-11-20T09:57:21;-3.40;99.90
4052;DHT22;2040;50.924;11.604;2022-11-20T09:59:54;-3.30;99.90
4052;DHT22;2040;50.924;11.604;2022-11-20T10:04:58;-3.20;99.90
4052;DHT22;2040;50.924;11.604;2022-11-20T10:08:07;-3.10;99.90
4052;DHT22;2040;50.924;11.604;2022-11-20T10:10:42;-3.10;99.90
4052;DHT22;2040;50.924;11.604;2022-11-20T10:21:41;-2.80;99.90
4052;DHT22;2040;50.924;11.604;2022-11-20T10:24:19;-2.90;99.90
4052;DHT22;2040;50.924;11.604;2022-11-20T10:30:02;-2.80;99.90
4052;DHT22;2040;50.924;11.604;2022-11-20T10:32:54;-2.90;99.90
4052;DHT22;2040;50.924;11.604;2022-11-20T10:37:59;-2.70;99.90
4052;DHT22;2040;50.924;11.604;2022-11-20T10:40:38;-2.80;99.90
4052;DHT22;2040;50.924;11.604;2022-11-20T10:43:21;-2.60;99.90
4052;DHT22;2040;50.924;11.604;2022-11-20T10:48:19;-2.60;99.90
4052;DHT22;2040;50.924;11.604;2022-11-20T10:51:05;-2.80;99.90
4052;DHT22;2040;50.924;11.604;2022-11-20T10:53:54;-2.60;99.90
4052;DHT22;2040;50.924;11.604;2022-11-20T10:56:27;-2.70;99.90
4052;DHT22;2040;50.924;11.604;2022-11-20T10:59:18;-2.50;99.90
4052;DHT22;2040;50.924;11.604;2022-11-20T11:01:49;-2.50;99.90
4052;DHT22;2040;50.924;11.604;2022-11-20T11:04:38;-2.30;99.90
4052;DHT22;2040;50.924;11.604;2022-11-20T11:07:13;-2.20;99.90
4052;DHT22;2040;50.924;11.604;2022-11-20T11:09:44;-2.30;99.90
4052;DHT22;2040;50.924;11.604;2022-11-20T11:12:11;-2.30;99.90
4052;DHT22;2040;50.924;11.604;2022-11-20T11:14:54;-2.20;99.90
4052;DHT22;2040;50.924;11.604;2022-11-20T11:17:28;-2.10;99.90
4052;DHT22;2040;50.924;11.604;2022-11-20T11:22:23;-2.10;99.90
4052;DHT22;2040;50.924;11.604;2022-11-20T11:24:53;-2.10;99.90
4052;DHT22;2040;50.924;11.604;2022-11-20T11:27:19;-2.20;99.90
4052;DHT22;2040;50.924;11.604;2022-11-20T11:29:45;-2.00;99.90
4052;DHT22;2040;50.924;11.604;2022-11-20T11:32:15;-2.00;99.90
4052;DHT22;2040;50.924;11.604;2022-11-20T11:34:41;-2.00;99.90
4052;DHT22;2040;50.924;11.604;2022-11-20T11:37:34;-2.00;99.90
4052;DHT22;2040;50.924;11.604;2022-11-20T11:40:01;-1.90;99.90
4052;DHT22;2040;50.924;11.604;2022-11-20T11:42:28;-2.00;99.90
4052;DHT22;2040;50.924;11.604;2022-11-20T11:44:55;-2.00;99.90
4052;DHT22;2040;50.924;11.604;2022-11-20T11:50:17;-2.00;99.90
4052;DHT22;2040;50.924;11.604;2022-11-20T11:53:19;-2.00;99.90
4052;DHT22;2040;50.924;11.604;2022-11-20T11:58:47;-1.90;99.90
4052;DHT22;2040;50.924;11.604;2022-11-20T12:01:37;-1.60;99.90
4052;DHT22;2040;50.924;11.604;2022-11-20T12:06:36;-1.30;99.90
4052;DHT22;2040;50.924;11.604;2022-11-20T12:09:05;-1.20;99.90
4052;DHT22;2040;50.924;11.604;2022-11-20T12:11:45;-1.00;99.90
4052;DHT22;2040;50.924;11.604;2022-11-20T12:16:50;-1.00;99.90
4052;DHT22;2040;50.924;11.604;2022-11-20T12:19:16;-1.10;99.90
4052;DHT22;2040;50.924;11.604;2022-11-20T12:41:02;-0.60;99.90
4052;DHT22;2040;50.924;11.604;2022-11-20T12:43:41;-0.70;99.90
4052;DHT22;2040;50.924;11.604;2022-11-20T12:46:57;-0.70;99.90
4052;DHT22;2040;50.924;11.604;2022-11-20T12:55:36;-0.80;99.90
4052;DHT22;2040;50.924;11.604;2022-11-20T12:58:18;-0.70;99.90
4052;DHT22;2040;50.924;11.604;2022-11-20T13:01:18;-0.80;99.90
4052;DHT22;2040;50.924;11.604;2022-11-20T13:06:43;-1.10;99.90
4052;DHT22;2040;50.924;11.604;2022-11-20T13:09:13;-1.10;99.90
4052;DHT22;2040;50.924;11.604;2022-11-20T13:14:19;-1.20;99.90
4052;DHT22;2040;50.924;11.604;2022-11-20T13:19:18;-1.00;99.90
4052;DHT22;2040;50.924;11.604;2022-11-20T13:21:46;-0.90;99.90
4052;DHT22;2040;50.924;11.604;2022-11-20T13:29:42;-0.80;99.90
4052;DHT22;2040;50.924;11.604;2022-11-20T13:32:16;-0.80;99.90
4052;DHT22;2040;50.924;11.604;2022-11-20T13:34:58;-0.80;99.90
4052;DHT22;2040;50.924;11.604;2022-11-20T13:37:37;-0.70;99.90
4052;DHT22;2040;50.924;11.604;2022-11-20T13:40:13;-0.50;99.90
4052;DHT22;2040;50.924;11.604;2022-11-20T13:42:51;-0.60;99.90
4052;DHT22;2040;50.924;11.604;2022-11-20T13:45:30;-0.60;99.90
4052;DHT22;2040;50.924;11.604;2022-11-20T13:47:59;-0.60;99.90
4052;DHT22;2040;50.924;11.604;2022-11-20T13:56:00;-0.50;99.90
4052;DHT22;2040;50.924;11.604;2022-11-20T14:01:28;-0.40;99.90
4052;DHT22;2040;50.924;11.604;2022-11-20T14:03:55;-0.30;99.90
4052;DHT22;2040;50.924;11.604;2022-11-20T14:06:34;-0.40;99.90
4052;DHT22;2040;50.924;11.604;2022-11-20T14:09:03;-0.50;99.90
4052;DHT22;2040;50.924;11.604;2022-11-20T14:11:30;-0.60;99.90
4052;DHT22;2040;50.924;11.604;2022-11-20T14:14:19;-0.60;99.90
4052;DHT22;2040;50.924;11.604;2022-11-20T14:16:46;-0.50;99.90
4052;DHT22;2040;50.924;11.604;2022-11-20T14:21:51;-0.50;99.90
4052;DHT22;2040;50.924;11.604;2022-11-20T14:24:22;-0.40;99.90
4052;DHT22;2040;50.924;11.604;2022-11-20T14:26:50;-0.50;99.90
4052;DHT22;2040;50.924;11.604;2022-11-20T14:29:22;-0.50;99.90
4052;DHT22;2040;50.924;11.604;2022-11-20T14:31:52;-0.50;99.90
4052;DHT22;2040;50.924;11.604;2022-11-20T14:34:21;-0.50;99.90
4052;DHT22;2040;50.924;11.604;2022-11-20T14:36:55;-0.20;99.90
4052;DHT22;2040;50.924;11.604;2022-11-20T14:39:27;-0.10;99.90
4052;DHT22;2040;50.924;11.604;2022-11-20T14:41:54;-0.40;99.90
4052;DHT22;2040;50.924;11.604;2022-11-20T14:44:23;-0.60;99.90
4052;DHT22;2040;50.924;11.604;2022-11-20T14:46:51;-0.70;99.90
4052;DHT22;2040;50.924;11.604;2022-11-20T14:49:18;-0.70;99.90
4052;DHT22;2040;50.924;11.604;2022-11-20T14:51:43;-0.80;99.90
4052;DHT22;2040;50.924;11.604;2022-11-20T14:54:18;-0.90;99.90
4052;DHT22;2040;50.924;11.604;2022-11-20T14:56:59;-1.10;99.90
4052;DHT22;2040;50.924;11.604;2022-11-20T14:59:26;-1.20;99.90
4052;DHT22;2040;50.924;11.604;2022-11-20T15:02:25;-1.40;99.90
4052;DHT22;2040;50.924;11.604;2022-11-20T15:04:57;-1.40;99.90
4052;DHT22;2040;50.924;11.604;2022-11-20T15:07:34;-1.40;99.90
4052;DHT22;2040;50.924;11.604;2022-11-20T15:10:13;-1.50;99.90
4052;DHT22;2040;50.924;11.604;2022-11-20T15:12:46;-1.70;99.90
4052;DHT22;2040;50.924;11.604;2022-11-20T15:15:16;-1.70;99.90
4052;DHT22;2040;50.924;11.604;2022-11-20T15:17:43;-1.80;99.90
4052;DHT22;2040;50.924;11.604;2022-11-20T15:20:14;-1.80;99.90
4052;DHT22;2040;50.924;11.604;2022-11-20T15:22:40;-1.90;99.90
4052;DHT22;2040;50.924;11.604;2022-11-20T15:25:17;-1.80;99.90
4052;DHT22;2040;50.924;11.604;2022-11-20T15:27:43;-1.80;99.90
4052;DHT22;2040;50.924;11.604;2022-11-20T15:30:18;-1.90;99.90
4052;DHT22;2040;50.924;11.604;2022-11-20T15:32:44;-1.80;99.90
4052;DHT22;2040;50.924;11.604;2022-11-20T15:35:10;-2.00;99.90
4052;DHT22;2040;50.924;11.604;2022-11-20T15:37:37;-2.00;99.90
4052;DHT22;2040;50.924;11.604;2022-11-20T15:40:04;-2.00;99.90
4052;DHT22;2040;50.924;11.604;2022-11-20T15:42:30;-2.10;99.90
4052;DHT22;2040;50.924;11.604;2022-11-20T15:44:56;-2.10;99.90
4052;DHT22;2040;50.924;11.604;2022-11-20T15:47:28;-2.20;99.90
4052;DHT22;2040;50.924;11.604;2022-11-20T15:49:55;-2.30;99.90
4052;DHT22;2040;50.924;11.604;2022-11-20T15:52:21;-2.30;99.90
4052;DHT22;2040;50.924;11.604;2022-11-20T15:54:47;-2.40;99.90
4052;DHT22;2040;50.924;11.604;2022-11-20T15:57:13;-2.40;99.90
4052;DHT22;2040;50.924;11.604;2022-11-20T15:59:39;-2.40;99.90
4052;DHT22;2040;50.924;11.604;2022-11-20T16:02:11;-2.50;99.90
4052;DHT22;2040;50.924;11.604;2022-11-20T16:04:37;-2.50;99.90
4052;DHT22;2040;50.924;11.604;2022-11-20T16:07:03;-2.50;99.90
4052;DHT22;2040;50.924;11.604;2022-11-20T16:09:29;-2.50;99.90
4052;DHT22;2040;50.924;11.604;2022-11-20T16:11:55;-2.50;99.90
4052;DHT22;2040;50.924;11.604;2022-11-20T16:14:21;-2.50;99.90
4052;DHT22;2040;50.924;11.604;2022-11-20T16:17:05;-2.50;99.90
4052;DHT22;2040;50.924;11.604;2022-11-20T16:19:31;-2.30;99.90
4052;DHT22;2040;50.924;11.604;2022-11-20T16:21:59;-2.40;99.90
4052;DHT22;2040;50.924;11.604;2022-11-20T16:24:26;-2.50;99.90
4052;DHT22;2040;50.924;11.604;2022-11-20T16:26:53;-2.50;99.90
4052;DHT22;2040;50.924;11.604;2022-11-20T16:29:19;-2.50;99.90
4052;DHT22;2040;50.924;11.604;2022-11-20T16:31:44;-2.50;99.90
4052;DHT22;2040;50.924;11.604;2022-11-20T16:34:10;-2.50;99.90
4052;DHT22;2040;50.924;11.604;2022-11-20T16:36:39;-2.50;99.90
4052;DHT22;2040;50.924;11.604;2022-11-20T16:39:05;-2.60;99.90
4052;DHT22;2040;50.924;11.604;2022-11-20T16:41:32;-2.70;99.90
4052;DHT22;2040;50.924;11.604;2022-11-20T16:44:00;-2.80;99.90
4052;DHT22;2040;50.924;11.604;2022-11-20T16:46:28;-2.90;99.90
4052;DHT22;2040;50.924;11.604;2022-11-20T16:48:58;-3.00;99.90
4052;DHT22;2040;50.924;11.604;2022-11-20T16:51:24;-3.00;99.90
4052;DHT22;2040;50.924;11.604;2022-11-20T16:53:51;-3.00;99.90
4052;DHT22;2040;50.924;11.604;2022-11-20T16:56:20;-2.90;99.90
4052;DHT22;2040;50.924;11.604;2022-11-20T16:58:48;-2.80;99.90
4052;DHT22;2040;50.924;11.604;2022-11-20T17:01:17;-2.70;99.90
4052;DHT22;2040;50.924;11.604;2022-11-20T17:03:45;-2.60;99.90
4052;DHT22;2040;50.924;11.604;2022-11-20T17:06:24;-2.60;99.90
4052;DHT22;2040;50.924;11.604;2022-11-20T17:08:49;-2.60;99.90
4052;DHT22;2040;50.924;11.604;2022-11-20T17:11:17;-2.60;99.90
4052;DHT22;2040;50.924;11.604;2022-11-20T17:13:44;-2.60;99.90
4052;DHT22;2040;50.924;11.604;2022-11-20T17:16:13;-2.60;99.90
4052;DHT22;2040;50.924;11.604;2022-11-20T17:18:38;-2.70;99.90
4052;DHT22;2040;50.924;11.604;2022-11-20T17:21:05;-2.60;99.90
4052;DHT22;2040;50.924;11.604;2022-11-20T17:23:42;-2.70;99.90
4052;DHT22;2040;50.924;11.604;2022-11-20T17:26:18;-2.70;99.90
4052;DHT22;2040;50.924;11.604;2022-11-20T17:28:45;-2.70;99.90